Time;durP1;ratioP1;P1;durP2;ratioP2;P2;SDS_P1;SDS_P2;PMS_P1;PMS_P2;Temp;Humidity;BMP_temperature;BMP_pressure;BME280_temperature;BME280_humidity;BME280_pressure;Samples;Min_cycle;Max_cycle;Signal;HPM_P1;HPM_P2
2021/09/27 00:00:24;;;;;;;11.30;8.30;;;;;;;15.30;82.80;101318.09;4972599;28;20026;-76
2021/09/27 00:02:49;;;;;;;11.55;7.60;;;;;;;15.28;82.74;101317.47;5007946;28;20461;-76
2021/09/27 00:05:17;;;;;;;11.23;7.28;;;;;;;15.25;82.77;101323.81;4991136;28;20092;-76
2021/09/27 00:07:43;;;;;;;13.40;8.20;;;;;;;15.23;82.96;101327.63;4964968;28;20088;-77
2021/09/27 00:10:11;;;;;;;16.88;8.40;;;;;;;15.18;83.13;101323.72;4989924;28;20047;-77
2021/09/27 00:12:36;;;;;;;13.93;7.60;;;;;;;15.14;83.09;101325.06;4972577;28;20026;-76
2021/09/27 00:15:05;;;;;;;12.48;8.25;;;;;;;15.12;83.31;101326.19;4994438;28;20041;-76
2021/09/27 00:17:30;;;;;;;11.45;8.77;;;;;;;15.11;83.32;101324.59;4970893;28;20109;-76
2021/09/27 00:19:55;;;;;;;14.75;9.30;;;;;;;15.10;83.41;101328.97;4969299;28;20096;-77
2021/09/27 00:22:22;;;;;;;14.32;8.93;;;;;;;15.11;83.37;101321.97;4973735;28;20025;-79
2021/09/27 00:24:48;;;;;;;17.95;10.63;;;;;;;15.07;83.30;101323.28;4978018;28;20530;-79
2021/09/27 00:27:13;;;;;;;18.45;10.20;;;;;;;15.01;83.50;101318.75;4992546;28;20135;-79
2021/09/27 00:29:39;;;;;;;17.55;10.45;;;;;;;14.96;83.84;101321.91;5005833;28;20375;-80
2021/09/27 00:32:04;;;;;;;16.27;10.43;;;;;;;14.93;83.91;101325.66;4968593;28;20033;-79
2021/09/27 00:34:30;;;;;;;18.80;12.02;;;;;;;14.92;84.21;101324.03;4990372;28;20049;-79
2021/09/27 00:36:55;;;;;;;17.10;11.15;;;;;;;14.91;84.42;101319.78;4972909;28;20060;-79
2021/09/27 00:39:21;;;;;;;16.38;10.63;;;;;;;14.92;84.48;101323.25;4971734;28;20032;-79
2021/09/27 00:41:46;;;;;;;17.98;11.13;;;;;;;14.94;84.80;101319.47;4991428;28;20053;-79
2021/09/27 00:44:12;;;;;;;20.65;11.95;;;;;;;14.97;85.01;101326.13;4989703;28;20371;-78
2021/09/27 00:46:37;;;;;;;22.80;13.70;;;;;;;14.98;84.68;101325.16;4973527;28;20451;-78
2021/09/27 00:49:04;;;;;;;24.67;15.20;;;;;;;14.94;84.85;101319.47;4987286;28;20451;-80
2021/09/27 00:51:33;;;;;;;23.25;13.75;;;;;;;14.94;84.94;101326.50;4980197;28;20735;-79
2021/09/27 00:54:07;;;;;;;24.70;15.35;;;;;;;14.94;85.18;101324.69;4975674;28;20042;-78
2021/09/27 00:56:48;;;;;;;26.05;17.30;;;;;;;14.91;85.52;101327.63;4987880;28;20436;-79
2021/09/27 00:59:14;;;;;;;29.58;19.88;;;;;;;14.95;85.33;101318.47;4993690;28;20065;-79
2021/09/27 01:01:41;;;;;;;26.08;17.70;;;;;;;14.93;85.59;101324.84;5008247;28;20034;-79
2021/09/27 01:04:07;;;;;;;21.40;15.20;;;;;;;14.94;85.90;101316.03;4994441;28;20037;-79
2021/09/27 01:07:06;;;;;;;20.92;13.82;;;;;;;14.92;85.92;101316.22;4981507;28;20532;-77
2021/09/27 01:09:59;;;;;;;21.92;14.43;;;;;;;14.94;85.80;101313.44;5008911;28;20650;-79
2021/09/27 01:12:46;;;;;;;17.47;12.90;;;;;;;14.90;85.64;101312.97;4966965;28;20061;-79
2021/09/27 01:15:29;;;;;;;18.42;11.88;;;;;;;14.87;85.62;101302.84;4973214;28;20116;-79
2021/09/27 01:18:27;;;;;;;20.45;12.93;;;;;;;14.84;85.64;101305.00;4993259;28;20116;-80
2021/09/27 01:21:09;;;;;;;19.52;10.38;;;;;;;14.83;85.53;101304.19;4990350;28;20394;-79
2021/09/27 01:24:12;;;;;;;19.05;11.10;;;;;;;14.81;85.44;101302.75;4989649;28;20045;-79
2021/09/27 01:27:15;;;;;;;17.40;11.20;;;;;;;14.77;85.45;101304.88;5000553;28;20100;-79
2021/09/27 01:30:14;;;;;;;17.92;11.15;;;;;;;14.73;85.30;101293.13;4989196;28;20046;-79
2021/09/27 01:32:47;;;;;;;16.73;11.65;;;;;;;14.68;85.23;101290.25;4987069;28;20124;-79
2021/09/27 01:35:50;;;;;;;23.67;12.80;;;;;;;14.65;85.07;101295.78;4988629;28;20411;-79
2021/09/27 01:38:21;;;;;;;21.88;10.30;;;;;;;14.63;85.06;101290.72;4985629;28;20045;-79
2021/09/27 01:41:02;;;;;;;17.80;10.13;;;;;;;14.62;84.96;101291.72;4987823;28;20046;-79
2021/09/27 01:43:33;;;;;;;16.85;10.70;;;;;;;14.58;84.91;101282.63;4985663;28;20119;-79
2021/09/27 01:46:24;;;;;;;20.50;12.30;;;;;;;14.56;84.89;101284.53;5009382;28;20068;-79
2021/09/27 01:49:15;;;;;;;17.48;10.93;;;;;;;14.64;84.92;101278.53;5002714;28;20034;-79
2021/09/27 01:51:51;;;;;;;20.17;12.32;;;;;;;14.57;85.00;101281.78;4994864;28;20410;-79
2021/09/27 01:54:33;;;;;;;19.67;12.32;;;;;;;14.62;85.18;101283.06;4975938;28;20120;-79
2021/09/27 01:57:50;;;;;;;22.90;12.75;;;;;;;14.52;85.45;101286.69;4981774;28;20044;-79
2021/09/27 02:00:27;;;;;;;19.30;13.35;;;;;;;14.46;85.67;101283.94;4986152;28;20382;-79
2021/09/27 02:03:35;;;;;;;18.02;12.55;;;;;;;14.40;85.48;101285.44;5001288;28;20111;-79
2021/09/27 02:06:08;;;;;;;17.63;11.75;;;;;;;14.37;85.71;101289.19;4894658;29;20403;-79
2021/09/27 02:08:41;;;;;;;21.90;12.98;;;;;;;14.35;85.47;101283.34;4912412;29;20400;-78
2021/09/27 02:11:19;;;;;;;19.05;12.10;;;;;;;14.34;85.82;101284.31;4953253;28;20050;-79
2021/09/27 02:13:56;;;;;;;21.02;13.50;;;;;;;14.29;86.04;101285.81;5006378;28;20033;-78
2021/09/27 02:16:40;;;;;;;18.38;12.32;;;;;;;14.26;86.21;101284.34;4987895;28;20041;-79
2021/09/27 02:19:15;;;;;;;18.73;12.43;;;;;;;14.26;85.84;101283.50;4985733;28;20053;-79
2021/09/27 02:21:44;;;;;;;18.05;11.10;;;;;;;14.21;86.09;101284.84;4970686;28;20129;-78
2021/09/27 02:24:20;;;;;;;18.05;12.18;;;;;;;14.18;85.98;101274.75;4968529;28;20026;-78
2021/09/27 02:26:48;;;;;;;18.45;11.93;;;;;;;14.17;86.10;101278.34;4972817;28;20037;-78
2021/09/27 02:29:15;;;;;;;20.58;12.70;;;;;;;14.17;86.20;101278.34;4986565;28;20064;-79
2021/09/27 02:31:52;;;;;;;16.70;10.60;;;;;;;14.18;86.36;101268.72;4985975;28;20040;-80
2021/09/27 02:34:31;;;;;;;21.83;12.82;;;;;;;14.17;86.49;101269.72;5001502;28;20045;-79
2021/09/27 02:37:01;;;;;;;18.40;12.48;;;;;;;14.16;86.65;101271.47;5004095;28;20133;-79
2021/09/27 02:39:41;;;;;;;18.83;11.40;;;;;;;14.15;86.54;101264.66;5005807;28;20214;-79
2021/09/27 02:42:13;;;;;;;16.73;11.57;;;;;;;14.15;86.65;101263.84;4998264;28;20124;-78
2021/09/27 02:44:38;;;;;;;20.55;13.23;;;;;;;14.13;86.52;101263.22;5004379;28;20410;-78
2021/09/27 02:47:09;;;;;;;24.63;13.05;;;;;;;14.11;86.46;101268.59;4985389;28;20037;-78
2021/09/27 02:49:47;;;;;;;21.23;14.77;;;;;;;14.10;86.42;101264.34;4989217;28;20030;-78
2021/09/27 02:52:18;;;;;;;24.45;16.92;;;;;;;14.14;85.90;101263.00;4990357;28;20046;-79
2021/09/27 02:54:55;;;;;;;20.73;13.10;;;;;;;14.11;86.34;101267.75;4987063;28;20077;-79
2021/09/27 02:57:52;;;;;;;25.25;15.30;;;;;;;14.11;86.62;101259.94;4971097;28;20466;-80
2021/09/27 03:00:32;;;;;;;28.65;16.20;;;;;;;14.07;86.85;101256.03;4994297;28;20379;-78
2021/09/27 03:03:19;;;;;;;22.70;12.48;;;;;;;14.01;87.07;101252.31;4972189;28;20054;-79
2021/09/27 03:06:22;;;;;;;27.13;16.38;;;;;;;13.99;87.02;101238.63;5004306;28;20088;-79
2021/09/27 03:09:06;;;;;;;26.10;15.63;;;;;;;14.00;87.06;101240.25;4986704;28;20026;-78
2021/09/27 03:11:34;;;;;;;;;;;;;;;13.97;87.03;101235.38;4980064;28;20045;-79
2021/09/27 03:14:02;;;;;;;19.90;11.45;;;;;;;13.96;87.26;101229.34;5004568;28;19918;-78
2021/09/27 03:16:53;;;;;;;35.17;24.25;;;;;;;14.00;86.79;101230.63;4987846;28;20331;-78
2021/09/27 03:19:47;;;;;;;32.80;20.45;;;;;;;13.96;87.15;101233.75;4990864;28;20038;-78
2021/09/27 03:22:47;;;;;;;31.08;19.85;;;;;;;13.91;87.30;101231.63;5004102;28;20109;-78
2021/09/27 03:25:37;;;;;;;31.83;19.80;;;;;;;13.88;87.26;101234.59;5000753;28;20049;-78
2021/09/27 03:28:27;;;;;;;26.65;18.23;;;;;;;13.85;87.33;101234.13;4988154;28;20133;-79
2021/09/27 03:31:19;;;;;;;28.48;18.38;;;;;;;13.83;87.60;101235.09;5009189;28;20388;-78
2021/09/27 03:34:02;;;;;;;24.33;15.20;;;;;;;13.82;87.49;101230.88;4989038;28;20129;-77
2021/09/27 03:37:06;;;;;;;22.90;13.88;;;;;;;13.81;87.32;101226.63;5000500;28;20154;-78
2021/09/27 03:39:38;;;;;;;26.08;15.75;;;;;;;13.85;87.21;101229.72;4993916;28;20033;-77
2021/09/27 03:42:54;;;;;;;26.83;15.23;;;;;;;13.82;87.10;101232.63;5009091;28;20033;-78
2021/09/27 03:45:24;;;;;;;21.27;14.55;;;;;;;13.78;87.27;101231.34;4950337;28;20048;-78
2021/09/27 03:48:16;;;;;;;21.67;13.30;;;;;;;13.74;87.45;101224.84;4992587;28;20038;-77
2021/09/27 03:51:03;;;;;;;20.13;12.95;;;;;;;13.73;87.58;101236.25;5009369;28;20084;-77
2021/09/27 03:53:34;;;;;;;20.52;12.73;;;;;;;13.72;87.30;101243.25;4987142;28;20128;-77
2021/09/27 03:56:08;;;;;;;22.50;12.57;;;;;;;13.70;87.18;101242.59;4990956;28;20049;-77
2021/09/27 03:58:38;;;;;;;23.20;13.68;;;;;;;13.68;87.07;101239.34;4988613;28;20062;-78
2021/09/27 04:01:20;;;;;;;19.63;12.38;;;;;;;13.66;86.83;101248.34;5012069;28;20526;-77
2021/09/27 04:04:13;;;;;;;18.02;11.85;;;;;;;13.63;86.74;101245.03;5008539;28;20402;-77
2021/09/27 04:06:54;;;;;;;18.88;11.52;;;;;;;13.60;86.44;101244.59;5007524;28;20033;-76
2021/09/27 04:09:30;;;;;;;21.08;11.57;;;;;;;13.56;86.53;101243.28;4973283;28;20076;-77
2021/09/27 04:12:08;;;;;;;18.55;12.05;;;;;;;13.53;86.59;101244.41;4986966;28;20049;-77
2021/09/27 04:14:51;;;;;;;16.73;11.35;;;;;;;13.53;86.52;101252.25;5010997;28;20253;-77
2021/09/27 04:17:44;;;;;;;16.33;10.65;;;;;;;13.50;86.76;101252.56;5004906;28;20030;-77
2021/09/27 04:20:14;;;;;;;;;;;;;;;13.48;86.81;101256.31;4999959;28;20371;-78
2021/09/27 04:22:56;;;;;;;18.48;10.70;;;;;;;13.47;86.75;101260.72;5001168;28;19964;-77
2021/09/27 04:26:00;;;;;;;18.90;11.82;;;;;;;13.44;86.78;101250.63;4984635;28;20268;-76
2021/09/27 04:28:45;;;;;;;15.50;10.15;;;;;;;13.42;86.51;101247.34;4986197;28;20135;-76
2021/09/27 04:31:32;;;;;;;18.10;11.55;;;;;;;13.42;86.70;101255.19;4975546;28;20026;-75
2021/09/27 04:34:06;;;;;;;20.80;12.68;;;;;;;13.39;86.77;101258.94;4987431;28;20061;-76
2021/09/27 04:36:40;;;;;;;24.02;13.50;;;;;;;13.40;86.83;101252.72;4972650;28;20037;-76
2021/09/27 04:39:10;;;;;;;19.77;12.65;;;;;;;13.41;87.02;101256.13;4988961;28;20107;-76
2021/09/27 04:41:58;;;;;;;23.23;15.45;;;;;;;13.41;87.29;101243.13;4989497;28;20168;-76
2021/09/27 04:44:49;;;;;;;22.45;15.20;;;;;;;13.42;87.53;101244.75;4977966;28;20423;-76
2021/09/27 04:47:18;;;;;;;24.35;14.70;;;;;;;13.43;87.77;101254.22;4988877;28;20046;-77
2021/09/27 04:49:58;;;;;;;25.48;15.93;;;;;;;13.44;88.03;101251.41;5004652;28;20030;-77
2021/09/27 04:53:02;;;;;;;29.15;15.88;;;;;;;13.48;88.44;101244.09;4991699;28;20041;-77
2021/09/27 04:55:49;;;;;;;27.83;16.15;;;;;;;13.51;88.99;101248.19;4976672;28;20108;-77
2021/09/27 04:58:27;;;;;;;29.50;17.63;;;;;;;13.50;89.36;101254.34;4992248;28;20034;-77
2021/09/27 05:01:04;;;;;;;27.88;17.70;;;;;;;13.57;89.71;101248.31;4988602;28;20044;-77
2021/09/27 05:03:47;;;;;;;29.58;17.45;;;;;;;13.55;89.85;101246.88;4992860;28;20025;-77
2021/09/27 05:06:34;;;;;;;25.25;16.85;;;;;;;13.57;90.06;101244.91;5006463;28;20049;-77
2021/09/27 05:09:02;;;;;;;25.48;14.73;;;;;;;13.76;90.09;101244.53;5006157;28;20065;-78
2021/09/27 05:11:49;;;;;;;18.50;12.75;;;;;;;13.77;90.06;101237.56;5008331;28;20043;-77
2021/09/27 05:14:51;;;;;;;22.35;14.57;;;;;;;13.82;90.43;101227.44;4992220;28;20037;-78
2021/09/27 05:17:55;;;;;;;23.67;12.77;;;;;;;13.79;90.65;101228.59;4986109;28;20362;-79
2021/09/27 05:20:46;;;;;;;22.55;12.48;;;;;;;13.83;90.64;101226.47;4988682;28;20044;-79
2021/09/27 05:23:47;;;;;;;20.98;11.40;;;;;;;13.83;90.73;101223.84;5001576;28;20124;-79
2021/09/27 05:26:47;;;;;;;15.82;11.30;;;;;;;14.01;90.43;101221.00;5009793;28;20041;-78
2021/09/27 05:29:24;;;;;;;17.85;12.13;;;;;;;14.02;90.21;101218.25;4994972;28;20033;-79
2021/09/27 05:32:11;;;;;;;19.17;11.13;;;;;;;14.08;90.27;101219.38;4970786;28;20034;-78
2021/09/27 05:35:11;;;;;;;20.75;12.52;;;;;;;14.05;90.52;101224.91;5003421;28;20061;-78
2021/09/27 05:38:11;;;;;;;22.33;12.02;;;;;;;14.14;90.53;101223.09;4989070;28;20030;-79
2021/09/27 05:41:27;;;;;;;20.75;12.45;;;;;;;14.11;90.69;101226.03;4996414;28;20032;-79
2021/09/27 05:44:16;;;;;;;17.80;11.75;;;;;;;14.19;90.36;101216.38;4987305;28;20421;-79
2021/09/27 05:47:09;;;;;;;20.55;11.93;;;;;;;14.19;90.29;101224.22;4977680;28;20111;-79
2021/09/27 05:49:53;;;;;;;26.00;14.68;;;;;;;14.25;90.60;101221.91;4986544;28;20034;-80
2021/09/27 05:52:27;;;;;;;21.55;13.27;;;;;;;14.25;90.69;101217.50;5009056;28;20037;-80
2021/09/27 05:55:14;;;;;;;25.90;14.50;;;;;;;14.26;90.36;101218.31;4977672;28;20026;-79
2021/09/27 05:57:45;;;;;;;23.17;13.63;;;;;;;14.28;90.17;101224.16;4990740;28;20053;-79
2021/09/27 06:00:35;;;;;;;25.63;13.90;;;;;;;14.26;90.59;101220.91;4989940;28;20609;-79
2021/09/27 06:03:13;;;;;;;21.10;13.35;;;;;;;14.25;90.31;101220.13;4982992;28;20033;-79
2021/09/27 06:05:57;;;;;;;23.73;14.50;;;;;;;14.29;90.71;101218.78;4978577;28;20133;-80
2021/09/27 06:08:28;;;;;;;23.17;12.15;;;;;;;14.31;89.93;101221.22;4974533;28;20041;-80
2021/09/27 06:11:10;;;;;;;19.65;11.88;;;;;;;14.27;90.34;101219.94;5006516;28;20046;-79
2021/09/27 06:13:42;;;;;;;20.98;12.05;;;;;;;14.25;90.71;101208.88;4987986;28;20461;-79
2021/09/27 06:16:53;;;;;;;20.70;12.87;;;;;;;14.36;90.02;101218.94;4990055;28;20034;-79
2021/09/27 06:19:40;;;;;;;19.95;12.75;;;;;;;14.33;90.44;101214.03;5000074;28;20042;-79
2021/09/27 06:22:42;;;;;;;19.85;12.38;;;;;;;14.34;90.28;101220.91;5000538;28;20521;-79
2021/09/27 06:25:24;;;;;;;20.17;11.15;;;;;;;14.38;90.07;101216.97;4991156;28;20092;-80
2021/09/27 06:28:14;;;;;;;16.83;10.95;;;;;;;14.46;90.18;101218.72;4994545;28;20049;-80
2021/09/27 06:31:00;;;;;;;22.15;10.48;;;;;;;14.59;89.87;101216.38;4990144;28;20033;-79
2021/09/27 06:33:32;;;;;;;18.42;10.40;;;;;;;14.91;89.00;101219.78;4988075;28;20092;-79
2021/09/27 06:36:03;;;;;;;24.17;12.98;;;;;;;15.34;86.65;101214.88;4990523;28;20809;-79
2021/09/27 06:38:32;;;;;;;20.55;12.75;;;;;;;15.62;85.07;101209.06;4995708;28;20557;-79
2021/09/27 06:40:59;;;;;;;21.90;11.85;;;;;;;15.79;84.25;101207.91;4976883;28;20042;-80
2021/09/27 06:43:26;;;;;;;21.75;11.80;;;;;;;16.02;83.19;101207.81;4990770;28;20030;-78
2021/09/27 06:45:53;;;;;;;22.02;11.60;;;;;;;15.91;83.32;101209.06;4993259;28;20445;-79
2021/09/27 06:48:20;;;;;;;23.90;13.02;;;;;;;16.24;83.02;101207.88;5009982;28;20041;-79
2021/09/27 06:50:46;;;;;;;20.10;11.65;;;;;;;16.64;81.18;101213.56;5017192;28;20038;-79
2021/09/27 06:53:12;;;;;;;23.60;12.40;;;;;;;16.85;79.91;101208.34;4999345;28;20064;-79
2021/09/27 06:55:38;;;;;;;20.05;10.85;;;;;;;16.74;80.08;101209.63;5015706;28;20487;-78
2021/09/27 06:58:04;;;;;;;23.30;12.90;;;;;;;16.37;81.53;101207.19;4990286;28;20772;-79
2021/09/27 07:00:31;;;;;;;20.50;11.95;;;;;;;16.15;82.94;101196.69;4991021;28;20049;-80
2021/09/27 07:02:57;;;;;;;22.63;11.45;;;;;;;15.89;83.95;101194.56;4991300;28;20050;-80
2021/09/27 07:05:23;;;;;;;17.42;11.50;;;;;;;15.90;84.54;101194.38;5009087;28;20045;-78
2021/09/27 07:07:49;;;;;;;26.30;12.02;;;;;;;16.48;82.71;101193.63;4998047;28;20041;-80
2021/09/27 07:10:19;;;;;;;22.20;11.57;;;;;;;17.00;80.10;101191.75;4996722;28;20042;-80
2021/09/27 07:12:44;;;;;;;25.02;10.68;;;;;;;17.65;78.10;101184.53;4997505;28;20030;-79
2021/09/27 07:15:10;;;;;;;19.58;11.25;;;;;;;17.97;76.18;101187.53;4979330;28;20034;-79
2021/09/27 07:17:37;;;;;;;18.50;10.35;;;;;;;18.15;75.22;101197.53;5014451;28;20418;-76
2021/09/27 07:20:06;;;;;;;22.65;11.05;;;;;;;18.35;75.00;101187.91;5000418;28;20091;-77
2021/09/27 07:22:31;;;;;;;16.65;9.38;;;;;;;18.54;73.96;101183.69;5014806;28;20048;-79
2021/09/27 07:24:57;;;;;;;21.98;10.55;;;;;;;18.70;73.42;101176.44;5012883;28;20041;-79
2021/09/27 07:27:22;;;;;;;14.88;9.85;;;;;;;18.24;74.57;101170.09;4981055;28;20034;-78
2021/09/27 07:29:48;;;;;;;15.63;10.07;;;;;;;18.20;75.01;101166.25;4994160;28;20042;-76
2021/09/27 07:32:13;;;;;;;19.20;10.15;;;;;;;18.56;74.31;101160.66;5011675;28;20041;-79
2021/09/27 07:34:39;;;;;;;16.98;9.60;;;;;;;19.12;72.34;101164.75;4979515;28;20060;-80
2021/09/27 07:37:04;;;;;;;15.88;8.43;;;;;;;19.38;70.37;101163.09;4978604;28;20049;-77
2021/09/27 07:39:32;;;;;;;19.67;9.43;;;;;;;19.48;70.37;101163.50;4992317;28;20021;-80
2021/09/27 07:41:57;;;;;;;15.52;8.80;;;;;;;19.62;69.85;101164.25;4990993;28;20597;-80
2021/09/27 07:44:22;;;;;;;16.20;8.68;;;;;;;19.84;68.80;101172.72;4994172;28;20026;-79
2021/09/27 07:46:48;;;;;;;18.98;9.73;;;;;;;19.36;70.46;101160.66;4975117;28;20038;-78
2021/09/27 07:49:13;;;;;;;17.33;8.77;;;;;;;19.30;70.74;101161.50;4997942;28;20034;-77
2021/09/27 07:51:39;;;;;;;20.52;9.95;;;;;;;18.91;72.63;101162.34;4990743;28;20042;-79
2021/09/27 07:54:05;;;;;;;15.98;8.60;;;;;;;18.73;73.53;101165.53;4990469;28;20103;-80
2021/09/27 07:56:31;;;;;;;16.13;9.40;;;;;;;18.52;73.99;101162.09;5006922;28;20030;-80
2021/09/27 07:58:57;;;;;;;13.82;8.90;;;;;;;18.32;75.46;101159.41;4972897;28;20569;-79
2021/09/27 08:01:22;;;;;;;15.00;9.00;;;;;;;18.07;76.44;101154.69;4979208;28;20117;-80
2021/09/27 08:03:47;;;;;;;18.08;9.65;;;;;;;18.08;75.84;101147.63;5007530;28;20030;-78
2021/09/27 08:06:13;;;;;;;19.58;9.30;;;;;;;18.08;76.60;101151.06;4991458;28;20052;-80
2021/09/27 08:08:40;;;;;;;17.45;9.45;;;;;;;18.20;76.51;101150.50;4974535;28;20030;-81
2021/09/27 08:11:05;;;;;;;23.58;10.93;;;;;;;18.51;75.19;101149.94;4994500;28;20030;-80
2021/09/27 08:13:31;;;;;;;17.23;8.80;;;;;;;18.60;74.63;101151.38;4991562;28;20438;-82
2021/09/27 08:15:57;;;;;;;12.90;8.13;;;;;;;18.90;74.81;101150.22;4991503;28;20041;-80
2021/09/27 08:18:23;;;;;;;16.58;9.00;;;;;;;19.30;72.64;101145.72;4974652;28;20314;-80
2021/09/27 08:20:59;;;;;;;13.90;9.15;;;;;;;19.56;71.30;101146.69;4990591;28;20061;-79
2021/09/27 08:23:25;;;;;;;17.40;9.23;;;;;;;19.77;70.76;101143.00;4992392;28;20367;-76
2021/09/27 08:25:52;;;;;;;11.82;8.20;;;;;;;19.87;70.52;101140.72;4977092;28;20406;-79
2021/09/27 08:28:20;;;;;;;16.80;8.40;;;;;;;19.82;69.30;101132.66;5005317;28;20042;-78
2021/09/27 08:30:59;;;;;;;12.32;7.95;;;;;;;19.89;69.09;101136.06;5005555;28;20045;-77
2021/09/27 08:33:26;;;;;;;12.10;7.88;;;;;;;19.58;70.08;101139.38;5000049;28;20034;-76
2021/09/27 08:35:53;;;;;;;11.07;8.32;;;;;;;19.36;70.62;101139.63;5015137;28;20036;-78
2021/09/27 08:38:22;;;;;;;14.10;8.57;;;;;;;19.44;70.43;101133.38;4989966;28;20065;-77
2021/09/27 08:41:00;;;;;;;12.60;8.05;;;;;;;19.57;70.20;101146.47;4988066;28;20649;-79
2021/09/27 08:43:25;;;;;;;13.80;9.20;;;;;;;19.55;69.76;101142.41;5003833;28;20498;-78
2021/09/27 08:45:51;;;;;;;14.00;7.85;;;;;;;19.64;69.87;101141.19;4992424;28;20128;-79
2021/09/27 08:48:33;;;;;;;11.55;7.10;;;;;;;19.63;69.96;101142.22;4988818;28;20095;-76
2021/09/27 08:50:58;;;;;;;13.57;7.72;;;;;;;19.59;70.64;101140.97;4989937;28;20042;-78
2021/09/27 08:53:46;;;;;;;13.32;7.82;;;;;;;19.49;71.42;101138.78;4986938;28;20037;-78
2021/09/27 08:56:27;;;;;;;13.93;8.13;;;;;;;19.47;70.81;101134.78;4999278;28;20504;-78
2021/09/27 08:59:11;;;;;;;12.32;7.28;;;;;;;19.52;71.02;101140.22;4990396;28;20065;-77
2021/09/27 09:01:59;;;;;;;13.32;6.60;;;;;;;19.44;71.34;101136.78;4988985;28;20648;-78
2021/09/27 09:04:27;;;;;;;12.45;7.43;;;;;;;19.40;70.47;101138.22;5007493;28;20034;-76
2021/09/27 09:07:01;;;;;;;10.95;6.65;;;;;;;19.50;70.34;101140.44;4988866;28;20030;-79
2021/09/27 09:09:41;;;;;;;9.73;6.78;;;;;;;19.62;69.04;101138.75;4993636;28;20118;-77
2021/09/27 09:12:20;;;;;;;10.05;5.95;;;;;;;19.50;69.97;101137.00;4991450;28;20037;-76
2021/09/27 09:14:59;;;;;;;12.43;6.70;;;;;;;19.53;69.99;101136.56;5008594;28;20033;-78
2021/09/27 09:17:37;;;;;;;10.02;5.82;;;;;;;19.45;70.43;101143.66;4997986;28;20061;-77
2021/09/27 09:20:20;;;;;;;13.77;5.88;;;;;;;19.47;69.52;101134.78;4990452;28;20065;-78
2021/09/27 09:22:46;;;;;;;14.07;6.30;;;;;;;19.39;70.63;101128.72;5008377;28;20032;-77
2021/09/27 09:25:28;;;;;;;10.43;5.85;;;;;;;19.43;71.23;101123.84;4992050;28;20037;-79
2021/09/27 09:27:55;;;;;;;8.20;5.30;;;;;;;19.50;70.48;101121.22;4967014;28;20034;-77
2021/09/27 09:30:26;;;;;;;8.50;5.63;;;;;;;19.68;69.51;101133.69;4996861;28;20060;-79
2021/09/27 09:32:53;;;;;;;8.35;5.68;;;;;;;19.55;70.15;101134.53;4994000;28;20042;-77
2021/09/27 09:35:32;;;;;;;8.27;5.43;;;;;;;19.53;70.05;101134.72;4993592;28;20508;-77
2021/09/27 09:38:00;;;;;;;10.63;5.35;;;;;;;19.48;70.16;101131.09;5000467;28;20030;-78
2021/09/27 09:40:40;;;;;;;10.30;5.63;;;;;;;19.48;70.12;101136.38;5014114;28;20095;-78
2021/09/27 09:43:23;;;;;;;9.98;5.90;;;;;;;19.40;70.08;101134.78;4992887;28;20069;-80
2021/09/27 09:45:59;;;;;;;;;;;;;;;19.40;71.30;101132.13;5007123;28;20091;-78
2021/09/27 09:48:26;;;;;;;15.35;6.03;;;;;;;19.35;71.05;101137.22;4989548;28;20278;-77
2021/09/27 09:51:17;;;;;;;10.88;5.15;;;;;;;19.39;71.16;101130.53;4988836;28;20030;-76
2021/09/27 09:53:59;;;;;;;8.35;4.55;;;;;;;19.33;70.82;101137.44;4993165;28;20067;-76
2021/09/27 09:56:33;;;;;;;8.68;5.32;;;;;;;19.37;71.44;101132.56;4996666;28;20041;-78
2021/09/27 09:59:01;;;;;;;7.15;4.07;;;;;;;19.46;70.29;101136.59;4985348;28;20061;-78
2021/09/27 10:01:32;;;;;;;7.05;4.47;;;;;;;19.45;70.43;101137.59;4992947;28;20041;-77
2021/09/27 10:04:05;;;;;;;9.20;4.70;;;;;;;19.59;70.31;101128.66;4979956;28;20042;-77
2021/09/27 10:06:45;;;;;;;7.93;4.72;;;;;;;19.60;70.28;101127.63;4981788;28;20033;-78
2021/09/27 10:09:36;;;;;;;6.43;4.63;;;;;;;19.65;70.06;101138.34;4990037;28;20521;-77
2021/09/27 10:12:07;;;;;;;11.15;4.72;;;;;;;19.83;70.02;101129.00;4994782;28;20049;-77
2021/09/27 10:14:40;;;;;;;12.48;4.93;;;;;;;19.99;70.14;101136.41;4978994;28;20038;-77
2021/09/27 10:17:32;;;;;;;9.32;3.75;;;;;;;20.05;69.30;101134.75;4986326;28;20052;-77
2021/09/27 10:20:12;;;;;;;8.40;4.30;;;;;;;20.02;69.06;101138.63;5003849;28;20046;-78
2021/09/27 10:22:39;;;;;;;6.60;3.67;;;;;;;20.01;69.41;101137.00;5005578;28;20033;-77
2021/09/27 10:25:26;;;;;;;15.57;4.38;;;;;;;20.11;68.58;101130.47;5006625;28;20052;-78
2021/09/27 10:27:53;;;;;;;10.40;3.50;;;;;;;20.09;69.01;101132.53;4983610;28;20276;-79
2021/09/27 10:30:22;;;;;;;8.73;3.63;;;;;;;20.21;68.41;101130.81;5005121;28;20040;-78
2021/09/27 10:32:54;;;;;;;14.77;3.92;;;;;;;20.09;68.39;101122.78;4968905;28;20048;-77
2021/09/27 10:35:45;;;;;;;12.73;3.70;;;;;;;20.14;68.80;101128.25;4989744;28;20115;-79
2021/09/27 10:39:01;;;;;;;6.05;3.58;;;;;;;20.15;69.36;101126.41;4976356;28;20096;-79
2021/09/27 10:41:35;;;;;;;8.00;3.70;;;;;;;20.02;69.73;101127.28;4999573;28;20054;-78
2021/09/27 10:44:08;;;;;;;6.43;3.25;;;;;;;19.96;69.58;101123.66;5004234;28;20049;-77
2021/09/27 10:46:40;;;;;;;4.97;2.17;;;;;;;20.03;68.24;101127.06;4987119;28;20065;-77
2021/09/27 10:49:14;;;;;;;7.85;2.40;;;;;;;20.07;66.34;101127.47;5003093;28;20034;-80
2021/09/27 10:51:40;;;;;;;5.72;2.35;;;;;;;20.09;66.65;101125.41;4981725;28;20489;-77
2021/09/27 10:54:24;;;;;;;5.25;2.03;;;;;;;20.16;65.92;101122.75;5005934;28;20091;-78
2021/09/27 10:56:54;;;;;;;4.03;2.33;;;;;;;20.18;67.26;101118.09;4998506;28;20097;-78
2021/09/27 10:59:42;;;;;;;3.50;2.00;;;;;;;20.17;66.10;101127.00;4994299;28;20037;-79
2021/09/27 11:02:10;;;;;;;5.50;2.35;;;;;;;20.26;65.05;101109.94;4999598;28;20041;-78
2021/09/27 11:04:42;;;;;;;6.32;2.00;;;;;;;20.23;65.26;101123.53;4974450;28;20072;-77
2021/09/27 11:07:27;;;;;;;5.68;2.50;;;;;;;20.25;65.67;101113.59;4972579;28;20041;-78
2021/09/27 11:09:54;;;;;;;3.80;1.90;;;;;;;20.17;66.20;101116.47;5013493;28;20065;-77
2021/09/27 11:12:39;;;;;;;4.25;2.33;;;;;;;20.23;65.27;101113.00;4976360;28;20025;-78
2021/09/27 11:15:13;;;;;;;10.20;2.47;;;;;;;20.33;65.13;101120.44;4984240;28;20038;-78
2021/09/27 11:17:44;;;;;;;3.60;1.77;;;;;;;20.26;65.79;101119.66;4984365;28;20034;-77
2021/09/27 11:20:16;;;;;;;4.20;2.25;;;;;;;20.29;64.79;101111.34;4993687;28;20436;-78
2021/09/27 11:22:56;;;;;;;5.53;1.73;;;;;;;20.37;65.37;101109.25;4989923;28;20045;-77
2021/09/27 11:25:22;;;;;;;4.32;2.42;;;;;;;20.63;64.61;101098.78;4987467;28;20652;-78
2021/09/27 11:28:35;;;;;;;3.42;2.10;;;;;;;20.77;61.96;101100.25;4987187;28;20481;-77
2021/09/27 11:31:21;;;;;;;6.20;2.13;;;;;;;21.04;62.12;101092.09;4985549;28;20041;-78
2021/09/27 11:33:54;;;;;;;3.33;2.03;;;;;;;21.22;62.63;101088.69;4985103;28;20120;-78
2021/09/27 11:36:19;;;;;;;3.97;1.58;;;;;;;21.39;62.31;101092.34;4994027;28;20033;-77
2021/09/27 11:38:47;;;;;;;6.95;2.33;;;;;;;21.39;62.58;101087.06;4977598;28;20358;-78
2021/09/27 11:41:13;;;;;;;2.67;1.65;;;;;;;21.34;62.36;101089.53;4996313;28;20518;-77
2021/09/27 11:44:22;;;;;;;3.03;1.63;;;;;;;21.30;63.23;101083.09;4999218;28;20207;-78
2021/09/27 11:47:08;;;;;;;7.10;1.90;;;;;;;21.14;61.82;101082.66;5007730;28;20542;-81
2021/09/27 11:50:01;;;;;;;3.38;2.13;;;;;;;21.04;62.17;101085.00;4991733;28;20049;-80
2021/09/27 11:52:38;;;;;;;5.65;1.73;;;;;;;20.90;62.25;101083.53;4988591;28;20032;-78
2021/09/27 11:55:11;;;;;;;4.40;2.03;;;;;;;20.93;62.56;101089.16;4975224;28;20038;-79
2021/09/27 11:57:50;;;;;;;6.35;1.83;;;;;;;20.89;61.70;101077.47;5007563;28;20030;-76
2021/09/27 12:00:20;;;;;;;4.00;1.60;;;;;;;21.03;62.71;101088.66;4998039;28;20037;-77